Terminal Aerodrome Forecast
Issued by NWS

Home | Current Version | Previous Version | Text Only | Print | Product List | Glossary On
Versions: 1 2 3 4 5 6 7 8 9 10 11 12 13
453
FTUS43 KGRB 141131
TAFAUW
TAF
KAUW 141131Z 1412/1512 13007KT P6SM BKN200
     FM141500 14008KT P6SM SCT040 BKN080
      TEMPO 1418/1420 -SN BKN035
     FM142000 14012G18KT 4SM -SN BKN020 OVC035
     FM142200 14010KT 2SM -SN BKN015 OVC025
     FM150800 16006KT 4SM -SN BKN012 OVC020=

USA.gov is the U.S. government's official web portal to all federal, state and local government web resources and services.